Last 24 Hours

Pinyon

10 Minute Data | America/Los_Angeles
as of 5/5/26 4:57 PM PDT
Date & Time Temp (°F) Dew Pt (°F) RH (%) Wind Spd (mph) Wind Dir (°) Wind Gust (mph) Wind Gst Dir (°) Daily Max Temp (°F) Daily Min Temp (°F)
5/5/26 - 1650 53.4 35.3 50 15.7 NNW | 347 22.4 NNW | 346 55.2 40.7
5/5/26 - 1640 53.0 35.4 51 17.4 N | 351 25.4 NNW | 341 55.2 40.7
5/5/26 - 1630 53.5 34.0 47 17.7 NNW | 344 26.1 NNW | 339 55.2 40.7
5/5/26 - 1620 54.5 33.9 46 16.4 N | 351 22.0 NNW | 330 55.2 40.7
5/5/26 - 1610 54.0 33.8 46 17.0 N | 349 26.2 N | 349 55.2 40.7
5/5/26 - 1600 54.2 33.6 45 17.3 N | 354 25.7 NNW | 343 55.2 40.7
5/5/26 - 1550 53.6 34.9 49 17.3 NNW | 344 25.4 NW | 326 55.0 40.7
5/5/26 - 1540 53.2 34.3 48 19.4 NNW | 339 28.9 NNW | 344 54.5 40.7
5/5/26 - 1530 53.7 34.0 47 20.2 NNW | 334 30.4 NNW | 334 54.5 40.7
5/5/26 - 1520 53.8 33.9 47 18.8 NNW | 339 27.9 NW | 325 54.5 40.7
5/5/26 - 1510 54.0 33.4 46 18.1 NNW | 339 29.7 NNW | 336 54.5 40.7
5/5/26 - 1500 53.8 33.0 45 18.3 NNW | 340 27.5 NNW | 340 54.4 40.7
5/5/26 - 1450 53.6 32.1 44 20.1 NNW | 337 31.8 NNW | 336 54.3 40.7
5/5/26 - 1440 53.5 33.5 46 18.6 NNW | 330 28.3 NW | 323 54.3 40.7
5/5/26 - 1430 53.0 33.6 48 17.0 NNW | 342 28.0 NNW | 344 54.3 40.7
5/5/26 - 1420 53.5 33.9 47 16.2 NNW | 343 25.6 NNW | 344 54.3 40.7
5/5/26 - 1410 53.2 34.2 48 18.3 NNW | 343 28.9 NNW | 328 53.8 40.7
5/5/26 - 1400 52.7 34.4 50 18.6 NNW | 342 27.2 NNW | 329 53.1 40.7
5/5/26 - 1350 52.2 33.4 49 19.8 NNW | 330 29.4 NNW | 341 53.1 40.7
5/5/26 - 1340 52.3 32.3 46 20.1 NNW | 332 29.1 NNW | 338 53.1 40.7
5/5/26 - 1330 51.3 32.4 48 21.3 NNW | 334 31.4 NNW | 348 52.6 40.7
5/5/26 - 1320 51.1 34.9 54 20.6 NNW | 330 29.9 NW | 318 51.7 40.7
5/5/26 - 1310 51.0 34.6 53 19.0 NNW | 346 29.4 NNW | 336 51.7 40.7
5/5/26 - 1300 50.3 35.1 56 20.5 NNW | 331 31.4 N | 354 51.7 40.7
5/5/26 - 1250 50.1 35.7 57 20.9 NNW | 331 31.3 NNW | 327 51.7 40.7
5/5/26 - 1240 49.7 35.4 58 20.7 NNW | 333 30.3 NNW | 342 51.7 40.7
5/5/26 - 1230 50.3 35.9 57 18.9 NNW | 335 29.2 NNW | 339 51.7 40.7
5/5/26 - 1220 49.3 35.8 59 19.3 NNW | 347 28.1 N | 354 50.2 40.7
5/5/26 - 1210 48.8 36.6 62 20.0 NNW | 336 30.3 NW | 322 50.2 40.7
5/5/26 - 1200 49.4 36.4 61 19.8 NNW | 335 28.1 NNW | 347 50.2 40.7
5/5/26 - 1150 49.2 37.0 63 18.2 NNW | 341 26.4 NNW | 337 50.0 40.7
5/5/26 - 1140 49.1 36.9 63 20.6 NNW | 345 30.7 N | 5 49.9 40.7
5/5/26 - 1130 48.6 37.8 66 19.4 NNW | 336 30.2 NW | 326 49.9 40.7
5/5/26 - 1120 48.3 37.8 67 20.6 NNW | 339 30.6 NNW | 329 49.5 40.7
5/5/26 - 1110 48.2 38.3 69 21.4 NNW | 339 30.3 NNW | 338 49.3 40.7
5/5/26 - 1100 48.3 38.5 69 22.0 NNW | 340 31.4 NNW | 343 49.3 40.7
5/5/26 - 1050 48.7 38.2 67 20.4 NNW | 338 30.1 NNW | 336 49.3 40.7
5/5/26 - 1040 48.1 38.2 68 20.8 NNW | 332 28.8 NNW | 332 48.8 40.7
5/5/26 - 1030 47.7 38.3 70 18.9 NNW | 339 25.1 NNW | 339 48.8 40.7
5/5/26 - 1020 46.8 38.5 73 18.6 NNW | 342 25.9 NNW | 332 48.8 40.7
5/5/26 - 1010 46.7 39.2 75 16.8 NNW | 335 25.2 NNW | 345 48.8 40.7
5/5/26 - 1000 46.3 39.6 77 16.3 NNW | 335 23.8 NW | 316 48.8 40.7
5/5/26 - 0950 45.4 39.7 80 15.5 NNW | 328 24.1 NNW | 337 48.8 40.7
5/5/26 - 0940 46.4 39.5 77 15.1 NW | 325 23.2 NNW | 328 48.8 40.7
5/5/26 - 0930 47.0 39.5 75 16.2 NNW | 336 23.8 NNW | 337 48.8 40.7
5/5/26 - 0920 47.3 38.7 72 17.6 NNW | 328 26.4 NW | 318 48.8 40.7
5/5/26 - 0910 48.2 38.5 69 14.2 NNW | 332 20.9 NW | 326 48.8 40.7
5/5/26 - 0900 46.9 37.6 70 16.6 NNW | 336 23.1 NNW | 331 48.0 40.7
5/5/26 - 0850 46.8 38.3 72 16.2 NNW | 331 24.0 NNW | 344 47.9 40.7
5/5/26 - 0840 46.7 38.7 74 15.3 NNW | 335 22.8 NNW | 333 47.9 40.7
5/5/26 - 0830 47.0 38.7 73 16.6 NNW | 334 24.4 NNW | 331 47.9 40.7
5/5/26 - 0820 46.7 37.7 71 16.2 NNW | 341 23.4 NNW | 344 47.1 40.7
5/5/26 - 0810 46.2 38.1 73 17.1 NNW | 338 26.0 NNW | 339 46.5 40.7
5/5/26 - 0800 45.6 38.3 75 16.3 NNW | 333 22.6 NNW | 341 45.9 40.7
5/5/26 - 0750 45.0 38.2 77 12.8 NNW | 336 18.1 NNW | 336 45.3 40.7
5/5/26 - 0740 45.0 38.2 77 13.6 NNW | 337 19.9 NNW | 333 45.2 40.7
5/5/26 - 0730 44.8 38.5 78 11.3 NNW | 347 17.6 NNW | 347 45.0 40.7
5/5/26 - 0720 44.0 38.2 80 10.0 NNW | 341 14.5 NNW | 330 44.1 40.7
5/5/26 - 0710 43.8 38.3 81 14.3 NNW | 336 20.6 NNW | 332 44.0 40.7
5/5/26 - 0700 42.7 38.3 84 15.8 NNW | 334 23.6 NNW | 333 43.3 40.7
5/5/26 - 0650 42.3 38.3 86 18.5 NNW | 334 28.0 NNW | 333 42.8 40.7
5/5/26 - 0640 42.0 38.2 86 18.0 NNW | 335 25.0 NNW | 340 42.8 40.7
5/5/26 - 0630 42.4 39.4 89 15.6 NNW | 337 29.0 NNW | 335 42.8 40.7
5/5/26 - 0620 42.7 39.2 88 16.8 NNW | 336 25.9 NNW | 337 42.8 40.7
5/5/26 - 0610 42.5 39.2 88 13.2 NNW | 339 19.7 NNW | 329 42.8 40.7
5/5/26 - 0600 42.4 39.1 88 15.2 NNW | 335 23.7 NNW | 339 42.8 40.7
5/5/26 - 0550 42.4 39.0 88 13.8 NNW | 332 19.6 NNW | 343 42.8 40.7
5/5/26 - 0540 42.0 38.9 89 12.9 NNW | 333 19.3 NNW | 329 42.8 40.7
5/5/26 - 0530 41.8 38.7 89 13.2 NNW | 333 19.0 NW | 324 42.8 40.7
5/5/26 - 0520 42.1 38.4 86 15.2 NNW | 331 20.9 NNW | 334 42.8 40.7
5/5/26 - 0510 42.1 38.1 85 14.1 NNW | 331 19.8 NNW | 327 42.8 40.7
5/5/26 - 0500 42.5 37.9 84 14.6 NW | 326 20.0 NNW | 334 42.8 40.7
5/5/26 - 0450 41.8 38.2 87 12.0 NW | 323 19.4 NW | 323 42.8 40.7
5/5/26 - 0440 41.2 38.7 91 9.0 NW | 317 13.2 NW | 321 42.8 40.7
5/5/26 - 0430 41.0 38.7 92 9.8 NNW | 327 15.6 NNW | 328 42.8 40.7
5/5/26 - 0420 41.1 38.8 92 12.4 NW | 325 18.5 NNW | 332 42.8 40.7
5/5/26 - 0410 41.3 38.7 91 14.7 NW | 324 24.3 NW | 316 42.8 40.7
5/5/26 - 0400 41.5 39.0 91 17.5 NNW | 327 27.8 NW | 321 42.8 40.7
5/5/26 - 0350 41.2 39.3 93 17.5 NW | 324 25.5 NW | 316 42.8 40.7
5/5/26 - 0340 40.8 39.3 94 15.9 NW | 324 24.0 NNW | 343 42.8 40.7
5/5/26 - 0330 40.8 39.1 94 17.2 NW | 323 25.8 NW | 322 42.8 40.7
5/5/26 - 0320 40.9 38.8 92 18.0 NW | 324 27.8 NW | 318 42.8 40.8
5/5/26 - 0310 41.2 38.4 90 18.0 NNW | 329 26.3 NW | 322 42.8 41.1
5/5/26 - 0300 41.8 38.1 86 17.4 NNW | 336 26.2 NNW | 334 42.8 41.4
5/5/26 - 0250 42.1 38.3 86 16.4 NNW | 335 23.9 NW | 322 42.8 41.6
5/5/26 - 0240 42.1 38.4 87 13.8 NNW | 341 23.9 NNW | 341 42.8 41.6
5/5/26 - 0230 42.0 38.5 87 15.2 NNW | 346 21.6 NNW | 348 42.8 41.6
5/5/26 - 0220 41.8 38.5 88 20.3 NNW | 336 32.1 NNW | 339 42.8 41.6
5/5/26 - 0210 41.8 38.3 87 21.2 NNW | 333 31.7 NNW | 343 42.8 41.6
5/5/26 - 0200 41.9 38.2 87 20.1 NNW | 331 28.1 NNW | 328 42.8 41.8
5/5/26 - 0150 42.1 38.5 87 18.3 NW | 325 26.0 NW | 326 42.8 42.0
5/5/26 - 0140 42.2 38.6 87 19.5 NW | 324 28.5 NW | 319 42.8 42.0
5/5/26 - 0130 42.6 38.5 85 19.1 NNW | 327 28.2 NNW | 331 42.8 42.4
5/5/26 - 0120 42.7 38.4 85 18.5 NW | 324 27.8 NW | 318 42.8 42.4
5/5/26 - 0110 42.4 38.7 86 18.0 NW | 325 26.8 NNW | 335 42.5 42.4
5/5/26 - 0100 42.9 38.1 83 16.8 NW | 325 26.1 NW | 322 55.0 42.5
5/5/26 - 0050 43.3 37.9 81 14.3 NNW | 330 25.4 NW | 323 55.0 42.5
5/5/26 - 0040 43.2 38.1 82 14.1 NNW | 329 21.9 NNW | 330 55.0 42.5
5/5/26 - 0030 43.6 38.0 80 15.4 NNW | 330 25.1 NNW | 338 55.0 42.5
5/5/26 - 0020 43.7 38.1 80 15.1 NW | 324 27.0 NNW | 328 55.0 42.5
5/5/26 - 0010 43.6 38.1 81 15.8 NW | 326 25.4 NW | 317 55.0 42.5
5/5/26 - 0000 43.4 38.2 82 18.4 NW | 326 28.6 NNW | 327 55.0 42.5
5/4/26 - 2350 43.4 38.3 82 18.3 NNW | 328 28.2 NW | 319 55.0 42.5
5/4/26 - 2340 43.6 38.2 81 18.5 NNW | 335 27.2 NNW | 337 55.0 42.5
5/4/26 - 2330 43.3 38.5 83 19.0 NNW | 332 26.7 NNW | 333 55.0 42.5
5/4/26 - 2320 42.9 38.7 85 18.1 NNW | 329 25.9 NNW | 334 55.0 42.5
5/4/26 - 2310 42.8 38.7 85 17.5 NNW | 337 27.4 N | 351 55.0 42.5
5/4/26 - 2300 42.6 38.6 86 16.2 NNW | 341 23.8 NNW | 332 55.0 42.5
5/4/26 - 2250 42.7 38.7 86 17.0 NNW | 339 25.4 NNW | 329 55.0 42.6
5/4/26 - 2240 43.0 39.1 86 19.8 NNW | 338 28.9 NNW | 344 55.0 42.6
5/4/26 - 2230 43.0 39.3 87 20.2 NNW | 340 32.3 NNW | 345 55.0 42.6
5/4/26 - 2220 43.1 39.3 86 20.6 NNW | 337 29.6 NNW | 339 55.0 42.6
5/4/26 - 2210 43.5 39.0 84 23.6 NNW | 336 33.8 NNW | 341 55.0 42.6
5/4/26 - 2200 43.9 38.9 83 22.1 NNW | 336 31.3 NNW | 339 55.0 42.6
5/4/26 - 2150 44.7 38.1 78 22.8 NNW | 336 34.6 NNW | 337 55.0 42.6
5/4/26 - 2140 44.8 38.0 77 23.6 NNW | 337 34.5 NNW | 347 55.0 42.6
5/4/26 - 2130 45.0 38.0 76 21.9 NNW | 334 31.6 NNW | 341 55.0 42.6
5/4/26 - 2120 44.9 38.2 77 20.3 NNW | 331 29.6 NW | 324 55.0 42.6
5/4/26 - 2110 45.1 38.3 77 20.2 NW | 326 29.2 NW | 318 55.0 42.6
5/4/26 - 2100 45.3 38.5 77 20.0 NNW | 327 31.0 NNW | 327 55.0 42.6
5/4/26 - 2050 45.4 38.8 78 19.4 NNW | 329 28.6 NNW | 331 55.0 42.6
5/4/26 - 2040 45.6 39.2 78 18.9 NNW | 327 28.0 NNW | 330 55.0 42.6
5/4/26 - 2030 45.7 39.7 79 19.4 NNW | 330 28.2 NW | 322 55.0 42.6
5/4/26 - 2020 45.9 39.8 79 19.5 NNW | 332 28.4 NW | 320 55.0 42.6
5/4/26 - 2010 46.1 39.8 79 18.7 NNW | 333 27.8 NNW | 337 55.0 42.6
5/4/26 - 2000 46.0 39.9 79 20.9 NNW | 330 30.6 NNW | 332 55.0 42.6
5/4/26 - 1950 46.0 40.1 80 19.1 NNW | 329 29.9 N | 349 55.0 42.6
5/4/26 - 1940 45.9 40.4 81 20.3 NNW | 327 29.2 NW | 320 55.0 42.6
5/4/26 - 1930 46.1 40.5 81 20.9 NNW | 327 33.4 NNW | 328 55.0 42.6
5/4/26 - 1920 46.6 40.3 79 22.9 NNW | 329 33.7 NNW | 331 55.0 42.6
5/4/26 - 1910 47.1 40.3 77 22.3 NNW | 331 36.8 NNW | 327 55.0 42.6
5/4/26 - 1900 47.9 40.0 74 23.3 NNW | 329 34.4 NNW | 336 55.0 42.6
5/4/26 - 1850 49.1 39.4 69 21.4 NNW | 330 33.5 NW | 324 55.0 42.6
5/4/26 - 1840 49.5 38.9 67 21.2 NNW | 334 30.5 NNW | 333 55.0 42.6
5/4/26 - 1830 49.7 36.6 60 19.9 NNW | 343 30.3 N | 353 55.0 42.6
5/4/26 - 1820 50.2 36.0 58 22.2 NNW | 344 35.4 NNW | 346 55.0 42.6
5/4/26 - 1810 50.7 35.9 57 22.2 NNW | 342 33.4 NNW | 347 55.0 42.6
5/4/26 - 1800 51.1 35.8 56 21.4 NNW | 343 32.5 NW | 326 55.0 42.6
5/4/26 - 1750 51.1 36.1 56 21.6 NNW | 345 34.0 N | 351 55.0 42.6
5/4/26 - 1740 51.6 36.4 56 20.5 NNW | 341 33.3 NNW | 334 55.0 42.6
5/4/26 - 1730 51.8 36.3 55 19.0 NNW | 345 31.5 NNW | 347 55.0 42.6
5/4/26 - 1720 51.9 36.2 55 19.4 NNW | 342 28.3 NW | 325 55.0 42.6
5/4/26 - 1710 51.5 36.5 56 20.3 NNW | 333 29.7 NNW | 341 55.0 42.6
5/4/26 - 1700 52.1 36.4 55 20.1 NNW | 338 29.9 N | 352 55.0 42.6
5/4/26 - 1650 52.4 36.5 55 19.1 NNW | 337 30.6 NNW | 335 55.0 42.6
Max 54.5 40.5 94 23.6 - 36.8 - 55.2 42.6
Avg 46.5 37.6 73 18.0 - 27.0 - - -
Min 40.8 32.1 44 9.0 - 13.2 - 42.5 40.7